<?xml version="1.0" encoding="UTF-8" standalone="no" ?>
<gpx xmlns="http://www.topografix.com/GPX/1/1" xmlns:xsi="http://www.w3.org/2001/XMLSchema-instance" xsi:schemaLocation="http://www.topografix.com/GPX/1/1 http://www.topografix.com/GPX/1/1/gpx.xsd" version="1.1" creator="VisuGPX - https://www.visugpx.com">
  <metadata>
    <name>Parcours n°𝟰 [BLEU] = FACILE</name>
    <desc><![CDATA[Parcours n°𝟮 [BLEU] = FACILE de l'UCP au Plan de la Tour. Ce parcours est labellisé FFC et répond aux normes de ce label.]]></desc>
  </metadata>
  <trk>
    <name><![CDATA[Parcours n°𝟰 [BLEU] = FACILE]]></name>
    <desc><![CDATA[Parcours n°𝟰 [BLEU] = FACILE de l'UCP au Plan de la Tour. Ce parcours est labellisé FFC et répond aux normes de ce label.]]></desc>
    <extensions>
      <line xmlns="http://www.topografix.com/GPX/gpx_style/0/2">
        <color>004698</color>
        <width>4</width>
          <extensions>
            <sens>1</sens>
          </extensions>
      </line>
    </extensions>
    <trkseg>
      <trkpt lat="43.33824" lon="6.54601">
        <ele>74.64</ele>
        <time>2025-03-15T13:00:00.000Z</time>
      </trkpt>
      <trkpt lat="43.33828" lon="6.54594">
        <ele>75.17</ele>
        <time>2025-03-15T13:00:03.591Z</time>
      </trkpt>
      <trkpt lat="43.33848" lon="6.54576">
        <ele>76.02</ele>
        <time>2025-03-15T13:00:15.495Z</time>
      </trkpt>
      <trkpt lat="43.33868" lon="6.54558">
        <ele>76.55</ele>
        <time>2025-03-15T13:00:26.915Z</time>
      </trkpt>
      <trkpt lat="43.33883" lon="6.54551">
        <ele>77.01</ele>
        <time>2025-03-15T13:00:34.478Z</time>
      </trkpt>
      <trkpt lat="43.33885" lon="6.54547">
        <ele>77.66</ele>
        <time>2025-03-15T13:00:37.471Z</time>
      </trkpt>
      <trkpt lat="43.33883" lon="6.54523">
        <ele>78.56</ele>
        <time>2025-03-15T13:00:46.443Z</time>
      </trkpt>
      <trkpt lat="43.33881" lon="6.545">
        <ele>79.6</ele>
        <time>2025-03-15T13:00:55.620Z</time>
      </trkpt>
      <trkpt lat="43.33874" lon="6.54464">
        <ele>80.8</ele>
        <time>2025-03-15T13:01:09.201Z</time>
      </trkpt>
      <trkpt lat="43.33866" lon="6.54429">
        <ele>82.17</ele>
        <time>2025-03-15T13:01:23.012Z</time>
      </trkpt>
      <trkpt lat="43.33857" lon="6.54392">
        <ele>83.59</ele>
        <time>2025-03-15T13:01:37.726Z</time>
      </trkpt>
      <trkpt lat="43.33848" lon="6.54354">
        <ele>85.09</ele>
        <time>2025-03-15T13:01:52.574Z</time>
      </trkpt>
      <trkpt lat="43.33838" lon="6.54317">
        <ele>86.49</ele>
        <time>2025-03-15T13:02:07.176Z</time>
      </trkpt>
      <trkpt lat="43.3383" lon="6.54305">
        <ele>87.64</ele>
        <time>2025-03-15T13:02:14.659Z</time>
      </trkpt>
      <trkpt lat="43.33808" lon="6.5429">
        <ele>88.73</ele>
        <time>2025-03-15T13:02:26.847Z</time>
      </trkpt>
      <trkpt lat="43.33791" lon="6.54273">
        <ele>89.73</ele>
        <time>2025-03-15T13:02:37.463Z</time>
      </trkpt>
      <trkpt lat="43.33774" lon="6.54257">
        <ele>90.65</ele>
        <time>2025-03-15T13:02:47.946Z</time>
      </trkpt>
      <trkpt lat="43.33755" lon="6.54234">
        <ele>91.46</ele>
        <time>2025-03-15T13:03:00.451Z</time>
      </trkpt>
      <trkpt lat="43.33746" lon="6.54221">
        <ele>92.04</ele>
        <time>2025-03-15T13:03:06.889Z</time>
      </trkpt>
      <trkpt lat="43.33734" lon="6.54212">
        <ele>92.29</ele>
        <time>2025-03-15T13:03:13.148Z</time>
      </trkpt>
      <trkpt lat="43.33707" lon="6.54214">
        <ele>92.21</ele>
        <time>2025-03-15T13:03:24.859Z</time>
      </trkpt>
      <trkpt lat="43.33707" lon="6.54216">
        <ele>92.14</ele>
        <time>2025-03-15T13:03:25.426Z</time>
      </trkpt>
      <trkpt lat="43.33688" lon="6.54219">
        <ele>91.82</ele>
        <time>2025-03-15T13:03:33.544Z</time>
      </trkpt>
      <trkpt lat="43.33669" lon="6.54223">
        <ele>91.44</ele>
        <time>2025-03-15T13:03:41.602Z</time>
      </trkpt>
      <trkpt lat="43.33664" lon="6.54221">
        <ele>91.05</ele>
        <time>2025-03-15T13:03:43.355Z</time>
      </trkpt>
      <trkpt lat="43.33637" lon="6.54225">
        <ele>90.6</ele>
        <time>2025-03-15T13:03:55.063Z</time>
      </trkpt>
      <trkpt lat="43.33609" lon="6.54229">
        <ele>90.32</ele>
        <time>2025-03-15T13:04:07.015Z</time>
      </trkpt>
      <trkpt lat="43.33595" lon="6.54229">
        <ele>89.86</ele>
        <time>2025-03-15T13:04:12.527Z</time>
      </trkpt>
      <trkpt lat="43.33579" lon="6.54229">
        <ele>89.32</ele>
        <time>2025-03-15T13:04:18.936Z</time>
      </trkpt>
      <trkpt lat="43.33572" lon="6.54238">
        <ele>88.75</ele>
        <time>2025-03-15T13:04:22.375Z</time>
      </trkpt>
      <trkpt lat="43.33573" lon="6.54279">
        <ele>88.05</ele>
        <time>2025-03-15T13:04:34.519Z</time>
      </trkpt>
      <trkpt lat="43.33574" lon="6.5432">
        <ele>87.26</ele>
        <time>2025-03-15T13:04:46.496Z</time>
      </trkpt>
      <trkpt lat="43.33577" lon="6.5435">
        <ele>86.45</ele>
        <time>2025-03-15T13:04:55.170Z</time>
      </trkpt>
      <trkpt lat="43.3358" lon="6.5438">
        <ele>85.6</ele>
        <time>2025-03-15T13:05:03.798Z</time>
      </trkpt>
      <trkpt lat="43.33583" lon="6.5441">
        <ele>84.78</ele>
        <time>2025-03-15T13:05:12.396Z</time>
      </trkpt>
      <trkpt lat="43.33573" lon="6.54428">
        <ele>83.95</ele>
        <time>2025-03-15T13:05:18.701Z</time>
      </trkpt>
      <trkpt lat="43.33564" lon="6.54446">
        <ele>83.16</ele>
        <time>2025-03-15T13:05:24.990Z</time>
      </trkpt>
      <trkpt lat="43.33568" lon="6.54476">
        <ele>82.46</ele>
        <time>2025-03-15T13:05:33.872Z</time>
      </trkpt>
      <trkpt lat="43.33557" lon="6.54502">
        <ele>81.73</ele>
        <time>2025-03-15T13:05:42.420Z</time>
      </trkpt>
      <trkpt lat="43.33533" lon="6.54523">
        <ele>80.99</ele>
        <time>2025-03-15T13:05:54.278Z</time>
      </trkpt>
      <trkpt lat="43.33508" lon="6.54545">
        <ele>80.26</ele>
        <time>2025-03-15T13:06:06.150Z</time>
      </trkpt>
      <trkpt lat="43.33501" lon="6.54551">
        <ele>79.55</ele>
        <time>2025-03-15T13:06:09.205Z</time>
      </trkpt>
      <trkpt lat="43.33499" lon="6.5456">
        <ele>78.85</ele>
        <time>2025-03-15T13:06:11.737Z</time>
      </trkpt>
      <trkpt lat="43.33499" lon="6.5456">
        <ele>78.2</ele>
        <time>2025-03-15T13:06:11.741Z</time>
      </trkpt>
      <trkpt lat="43.33499" lon="6.5456">
        <ele>78.85</ele>
        <time>2025-03-15T13:06:11.760Z</time>
      </trkpt>
      <trkpt lat="43.33499" lon="6.5456">
        <ele>78.2</ele>
        <time>2025-03-15T13:06:11.763Z</time>
      </trkpt>
      <trkpt lat="43.33524" lon="6.54565">
        <ele>76.27</ele>
        <time>2025-03-15T13:06:21.337Z</time>
      </trkpt>
      <trkpt lat="43.33549" lon="6.54571">
        <ele>75.59</ele>
        <time>2025-03-15T13:06:31.443Z</time>
      </trkpt>
      <trkpt lat="43.33568" lon="6.5459">
        <ele>74.75</ele>
        <time>2025-03-15T13:06:40.866Z</time>
      </trkpt>
      <trkpt lat="43.33597" lon="6.54604">
        <ele>73.77</ele>
        <time>2025-03-15T13:06:53.261Z</time>
      </trkpt>
      <trkpt lat="43.33627" lon="6.54619">
        <ele>72.79</ele>
        <time>2025-03-15T13:07:05.660Z</time>
      </trkpt>
      <trkpt lat="43.33656" lon="6.54633">
        <ele>71.88</ele>
        <time>2025-03-15T13:07:18.174Z</time>
      </trkpt>
      <trkpt lat="43.33669" lon="6.54652">
        <ele>71.07</ele>
        <time>2025-03-15T13:07:25.530Z</time>
      </trkpt>
      <trkpt lat="43.33674" lon="6.54692">
        <ele>70.23</ele>
        <time>2025-03-15T13:07:37.369Z</time>
      </trkpt>
      <trkpt lat="43.33679" lon="6.54732">
        <ele>69.38</ele>
        <time>2025-03-15T13:07:49.143Z</time>
      </trkpt>
      <trkpt lat="43.33675" lon="6.54759">
        <ele>68.52</ele>
        <time>2025-03-15T13:07:57.174Z</time>
      </trkpt>
      <trkpt lat="43.33667" lon="6.548">
        <ele>67.6</ele>
        <time>2025-03-15T13:08:09.547Z</time>
      </trkpt>
      <trkpt lat="43.33675" lon="6.54832">
        <ele>66.86</ele>
        <time>2025-03-15T13:08:19.544Z</time>
      </trkpt>
      <trkpt lat="43.33692" lon="6.5485">
        <ele>66.2</ele>
        <time>2025-03-15T13:08:28.020Z</time>
      </trkpt>
      <trkpt lat="43.33684" lon="6.54875">
        <ele>65.31</ele>
        <time>2025-03-15T13:08:35.957Z</time>
      </trkpt>
      <trkpt lat="43.33677" lon="6.54882">
        <ele>64.53</ele>
        <time>2025-03-15T13:08:39.012Z</time>
      </trkpt>
      <trkpt lat="43.33673" lon="6.54895">
        <ele>63.75</ele>
        <time>2025-03-15T13:08:42.965Z</time>
      </trkpt>
      <trkpt lat="43.33671" lon="6.54918">
        <ele>62.98</ele>
        <time>2025-03-15T13:08:49.605Z</time>
      </trkpt>
      <trkpt lat="43.33654" lon="6.54938">
        <ele>62.21</ele>
        <time>2025-03-15T13:08:58.366Z</time>
      </trkpt>
      <trkpt lat="43.33634" lon="6.54965">
        <ele>61.44</ele>
        <time>2025-03-15T13:09:09.671Z</time>
      </trkpt>
      <trkpt lat="43.33615" lon="6.54978">
        <ele>60.75</ele>
        <time>2025-03-15T13:09:18.213Z</time>
      </trkpt>
      <trkpt lat="43.33597" lon="6.5498">
        <ele>60.14</ele>
        <time>2025-03-15T13:09:25.387Z</time>
      </trkpt>
      <trkpt lat="43.33596" lon="6.5498">
        <ele>59.59</ele>
        <time>2025-03-15T13:09:25.874Z</time>
      </trkpt>
      <trkpt lat="43.33572" lon="6.5497">
        <ele>59.04</ele>
        <time>2025-03-15T13:09:36.233Z</time>
      </trkpt>
      <trkpt lat="43.33548" lon="6.5496">
        <ele>58.55</ele>
        <time>2025-03-15T13:09:46.666Z</time>
      </trkpt>
      <trkpt lat="43.33523" lon="6.5495">
        <ele>58.07</ele>
        <time>2025-03-15T13:09:57.107Z</time>
      </trkpt>
      <trkpt lat="43.33499" lon="6.5494">
        <ele>57.6</ele>
        <time>2025-03-15T13:10:07.600Z</time>
      </trkpt>
      <trkpt lat="43.33504" lon="6.54973">
        <ele>57.13</ele>
        <time>2025-03-15T13:10:17.737Z</time>
      </trkpt>
      <trkpt lat="43.33509" lon="6.55006">
        <ele>56.65</ele>
        <time>2025-03-15T13:10:27.862Z</time>
      </trkpt>
      <trkpt lat="43.33514" lon="6.55038">
        <ele>56.16</ele>
        <time>2025-03-15T13:10:37.905Z</time>
      </trkpt>
      <trkpt lat="43.33504" lon="6.55071">
        <ele>55.6</ele>
        <time>2025-03-15T13:10:48.496Z</time>
      </trkpt>
      <trkpt lat="43.33493" lon="6.55103">
        <ele>54.95</ele>
        <time>2025-03-15T13:10:58.940Z</time>
      </trkpt>
      <trkpt lat="43.33481" lon="6.55126">
        <ele>54.28</ele>
        <time>2025-03-15T13:11:07.333Z</time>
      </trkpt>
      <trkpt lat="43.33468" lon="6.5515">
        <ele>53.65</ele>
        <time>2025-03-15T13:11:15.770Z</time>
      </trkpt>
      <trkpt lat="43.33456" lon="6.55174">
        <ele>52.93</ele>
        <time>2025-03-15T13:11:24.072Z</time>
      </trkpt>
      <trkpt lat="43.33445" lon="6.5519">
        <ele>52.22</ele>
        <time>2025-03-15T13:11:30.230Z</time>
      </trkpt>
      <trkpt lat="43.33434" lon="6.55206">
        <ele>51.49</ele>
        <time>2025-03-15T13:11:36.373Z</time>
      </trkpt>
      <trkpt lat="43.33428" lon="6.55214">
        <ele>50.79</ele>
        <time>2025-03-15T13:11:39.701Z</time>
      </trkpt>
      <trkpt lat="43.33426" lon="6.55232">
        <ele>50.07</ele>
        <time>2025-03-15T13:11:44.563Z</time>
      </trkpt>
      <trkpt lat="43.33422" lon="6.55262">
        <ele>49.38</ele>
        <time>2025-03-15T13:11:53.457Z</time>
      </trkpt>
      <trkpt lat="43.33416" lon="6.55253">
        <ele>48.68</ele>
        <time>2025-03-15T13:11:56.899Z</time>
      </trkpt>
      <trkpt lat="43.33405" lon="6.55253">
        <ele>48.02</ele>
        <time>2025-03-15T13:12:01.016Z</time>
      </trkpt>
      <trkpt lat="43.33388" lon="6.55268">
        <ele>47.39</ele>
        <time>2025-03-15T13:12:09.144Z</time>
      </trkpt>
      <trkpt lat="43.33381" lon="6.55279">
        <ele>46.83</ele>
        <time>2025-03-15T13:12:13.026Z</time>
      </trkpt>
      <trkpt lat="43.33379" lon="6.55307">
        <ele>46.26</ele>
        <time>2025-03-15T13:12:21.249Z</time>
      </trkpt>
      <trkpt lat="43.33373" lon="6.55322">
        <ele>45.7</ele>
        <time>2025-03-15T13:12:26.121Z</time>
      </trkpt>
      <trkpt lat="43.33363" lon="6.5534">
        <ele>45.11</ele>
        <time>2025-03-15T13:12:32.588Z</time>
      </trkpt>
      <trkpt lat="43.33353" lon="6.55358">
        <ele>44.56</ele>
        <time>2025-03-15T13:12:39.084Z</time>
      </trkpt>
      <trkpt lat="43.33353" lon="6.55388">
        <ele>44.01</ele>
        <time>2025-03-15T13:12:47.963Z</time>
      </trkpt>
      <trkpt lat="43.3334" lon="6.55395">
        <ele>43.66</ele>
        <time>2025-03-15T13:12:53.528Z</time>
      </trkpt>
      <trkpt lat="43.33332" lon="6.5539">
        <ele>43.43</ele>
        <time>2025-03-15T13:12:57.239Z</time>
      </trkpt>
      <trkpt lat="43.33321" lon="6.55371">
        <ele>43.38</ele>
        <time>2025-03-15T13:13:04.924Z</time>
      </trkpt>
      <trkpt lat="43.33313" lon="6.55367">
        <ele>43.37</ele>
        <time>2025-03-15T13:13:08.916Z</time>
      </trkpt>
      <trkpt lat="43.33295" lon="6.55369">
        <ele>43.43</ele>
        <time>2025-03-15T13:13:16.554Z</time>
      </trkpt>
      <trkpt lat="43.33291" lon="6.55373">
        <ele>43.61</ele>
        <time>2025-03-15T13:13:19.142Z</time>
      </trkpt>
      <trkpt lat="43.3328" lon="6.55384">
        <ele>43.91</ele>
        <time>2025-03-15T13:13:25.388Z</time>
      </trkpt>
      <trkpt lat="43.3328" lon="6.55384">
        <ele>44.31</ele>
        <time>2025-03-15T13:13:25.407Z</time>
      </trkpt>
      <trkpt lat="43.33263" lon="6.55388">
        <ele>44.81</ele>
        <time>2025-03-15T13:13:33.774Z</time>
      </trkpt>
      <trkpt lat="43.3325" lon="6.55407">
        <ele>45.42</ele>
        <time>2025-03-15T13:13:43.018Z</time>
      </trkpt>
      <trkpt lat="43.33227" lon="6.55407">
        <ele>46.14</ele>
        <time>2025-03-15T13:13:54.410Z</time>
      </trkpt>
      <trkpt lat="43.33205" lon="6.55425">
        <ele>46.96</ele>
        <time>2025-03-15T13:14:06.489Z</time>
      </trkpt>
      <trkpt lat="43.3318" lon="6.55438">
        <ele>47.7</ele>
        <time>2025-03-15T13:14:19.266Z</time>
      </trkpt>
      <trkpt lat="43.33155" lon="6.5545">
        <ele>48.65</ele>
        <time>2025-03-15T13:14:32.369Z</time>
      </trkpt>
      <trkpt lat="43.3313" lon="6.55463">
        <ele>49.63</ele>
        <time>2025-03-15T13:14:45.541Z</time>
      </trkpt>
      <trkpt lat="43.33107" lon="6.55478">
        <ele>50.51</ele>
        <time>2025-03-15T13:14:58.154Z</time>
      </trkpt>
      <trkpt lat="43.33083" lon="6.55492">
        <ele>51.42</ele>
        <time>2025-03-15T13:15:10.811Z</time>
      </trkpt>
      <trkpt lat="43.33059" lon="6.55507">
        <ele>52.16</ele>
        <time>2025-03-15T13:15:23.204Z</time>
      </trkpt>
      <trkpt lat="43.33036" lon="6.55521">
        <ele>52.77</ele>
        <time>2025-03-15T13:15:35.424Z</time>
      </trkpt>
      <trkpt lat="43.33036" lon="6.55521">
        <ele>53.35</ele>
        <time>2025-03-15T13:15:35.443Z</time>
      </trkpt>
      <trkpt lat="43.33027" lon="6.55523">
        <ele>53.84</ele>
        <time>2025-03-15T13:15:40.020Z</time>
      </trkpt>
      <trkpt lat="43.33006" lon="6.55541">
        <ele>54.14</ele>
        <time>2025-03-15T13:15:51.324Z</time>
      </trkpt>
      <trkpt lat="43.32976" lon="6.55538">
        <ele>54.55</ele>
        <time>2025-03-15T13:16:04.775Z</time>
      </trkpt>
      <trkpt lat="43.32947" lon="6.55535">
        <ele>54.94</ele>
        <time>2025-03-15T13:16:18.198Z</time>
      </trkpt>
      <trkpt lat="43.32918" lon="6.55532">
        <ele>55.25</ele>
        <time>2025-03-15T13:16:31.547Z</time>
      </trkpt>
      <trkpt lat="43.32905" lon="6.55519">
        <ele>55.42</ele>
        <time>2025-03-15T13:16:38.761Z</time>
      </trkpt>
      <trkpt lat="43.32888" lon="6.55515">
        <ele>55.46</ele>
        <time>2025-03-15T13:16:46.468Z</time>
      </trkpt>
      <trkpt lat="43.32886" lon="6.55521">
        <ele>55.41</ele>
        <time>2025-03-15T13:16:48.661Z</time>
      </trkpt>
      <trkpt lat="43.32883" lon="6.55558">
        <ele>55.14</ele>
        <time>2025-03-15T13:16:59.980Z</time>
      </trkpt>
      <trkpt lat="43.32877" lon="6.55588">
        <ele>55.03</ele>
        <time>2025-03-15T13:17:09.825Z</time>
      </trkpt>
      <trkpt lat="43.32877" lon="6.55614">
        <ele>54.82</ele>
        <time>2025-03-15T13:17:17.782Z</time>
      </trkpt>
      <trkpt lat="43.32877" lon="6.55639">
        <ele>54.62</ele>
        <time>2025-03-15T13:17:25.714Z</time>
      </trkpt>
      <trkpt lat="43.32875" lon="6.55665">
        <ele>54.43</ele>
        <time>2025-03-15T13:17:33.751Z</time>
      </trkpt>
      <trkpt lat="43.32873" lon="6.55691">
        <ele>54.28</ele>
        <time>2025-03-15T13:17:41.801Z</time>
      </trkpt>
      <trkpt lat="43.32864" lon="6.55729">
        <ele>54.1</ele>
        <time>2025-03-15T13:17:54.446Z</time>
      </trkpt>
      <trkpt lat="43.32864" lon="6.55759">
        <ele>54.02</ele>
        <time>2025-03-15T13:18:03.923Z</time>
      </trkpt>
      <trkpt lat="43.32858" lon="6.55781">
        <ele>53.97</ele>
        <time>2025-03-15T13:18:11.260Z</time>
      </trkpt>
      <trkpt lat="43.32852" lon="6.55786">
        <ele>54.04</ele>
        <time>2025-03-15T13:18:14.476Z</time>
      </trkpt>
      <trkpt lat="43.32838" lon="6.55798">
        <ele>54.18</ele>
        <time>2025-03-15T13:18:21.638Z</time>
      </trkpt>
      <trkpt lat="43.32825" lon="6.55823">
        <ele>54.49</ele>
        <time>2025-03-15T13:18:31.769Z</time>
      </trkpt>
      <trkpt lat="43.32813" lon="6.55847">
        <ele>54.89</ele>
        <time>2025-03-15T13:18:42.008Z</time>
      </trkpt>
      <trkpt lat="43.3282" lon="6.55869">
        <ele>55.36</ele>
        <time>2025-03-15T13:18:50.292Z</time>
      </trkpt>
      <trkpt lat="43.32828" lon="6.5589">
        <ele>55.94</ele>
        <time>2025-03-15T13:18:58.721Z</time>
      </trkpt>
      <trkpt lat="43.32823" lon="6.5591">
        <ele>56.5</ele>
        <time>2025-03-15T13:19:05.987Z</time>
      </trkpt>
      <trkpt lat="43.32808" lon="6.55931">
        <ele>57.13</ele>
        <time>2025-03-15T13:19:16.394Z</time>
      </trkpt>
      <trkpt lat="43.32797" lon="6.55958">
        <ele>57.8</ele>
        <time>2025-03-15T13:19:27.199Z</time>
      </trkpt>
      <trkpt lat="43.32785" lon="6.55984">
        <ele>58.49</ele>
        <time>2025-03-15T13:19:38.032Z</time>
      </trkpt>
      <trkpt lat="43.32774" lon="6.5601">
        <ele>59.16</ele>
        <time>2025-03-15T13:19:48.790Z</time>
      </trkpt>
      <trkpt lat="43.32765" lon="6.56021">
        <ele>59.74</ele>
        <time>2025-03-15T13:19:54.756Z</time>
      </trkpt>
      <trkpt lat="43.32742" lon="6.56035">
        <ele>60.32</ele>
        <time>2025-03-15T13:20:06.842Z</time>
      </trkpt>
      <trkpt lat="43.32718" lon="6.56049">
        <ele>60.91</ele>
        <time>2025-03-15T13:20:18.952Z</time>
      </trkpt>
      <trkpt lat="43.32712" lon="6.56056">
        <ele>61.44</ele>
        <time>2025-03-15T13:20:23.272Z</time>
      </trkpt>
      <trkpt lat="43.32703" lon="6.56075">
        <ele>61.96</ele>
        <time>2025-03-15T13:20:31.245Z</time>
      </trkpt>
      <trkpt lat="43.32682" lon="6.56081">
        <ele>62.4</ele>
        <time>2025-03-15T13:20:41.491Z</time>
      </trkpt>
      <trkpt lat="43.3266" lon="6.56088">
        <ele>62.77</ele>
        <time>2025-03-15T13:20:51.634Z</time>
      </trkpt>
      <trkpt lat="43.32639" lon="6.56094">
        <ele>63.14</ele>
        <time>2025-03-15T13:21:01.804Z</time>
      </trkpt>
      <trkpt lat="43.32634" lon="6.56077">
        <ele>63.33</ele>
        <time>2025-03-15T13:21:07.860Z</time>
      </trkpt>
      <trkpt lat="43.32624" lon="6.56047">
        <ele>63.45</ele>
        <time>2025-03-15T13:21:18.587Z</time>
      </trkpt>
      <trkpt lat="43.32614" lon="6.56017">
        <ele>63.53</ele>
        <time>2025-03-15T13:21:29.256Z</time>
      </trkpt>
      <trkpt lat="43.32604" lon="6.55987">
        <ele>63.57</ele>
        <time>2025-03-15T13:21:39.815Z</time>
      </trkpt>
      <trkpt lat="43.32617" lon="6.55963">
        <ele>63.43</ele>
        <time>2025-03-15T13:21:49.041Z</time>
      </trkpt>
      <trkpt lat="43.32622" lon="6.55944">
        <ele>63.29</ele>
        <time>2025-03-15T13:21:55.298Z</time>
      </trkpt>
      <trkpt lat="43.32611" lon="6.55912">
        <ele>63.09</ele>
        <time>2025-03-15T13:22:06.350Z</time>
      </trkpt>
      <trkpt lat="43.326" lon="6.5588">
        <ele>62.8</ele>
        <time>2025-03-15T13:22:17.242Z</time>
      </trkpt>
      <trkpt lat="43.32602" lon="6.55875">
        <ele>62.41</ele>
        <time>2025-03-15T13:22:18.664Z</time>
      </trkpt>
      <trkpt lat="43.32611" lon="6.55843">
        <ele>61.92</ele>
        <time>2025-03-15T13:22:29.071Z</time>
      </trkpt>
      <trkpt lat="43.3262" lon="6.55811">
        <ele>61.35</ele>
        <time>2025-03-15T13:22:39.377Z</time>
      </trkpt>
      <trkpt lat="43.3263" lon="6.55778">
        <ele>60.75</ele>
        <time>2025-03-15T13:22:49.648Z</time>
      </trkpt>
      <trkpt lat="43.32639" lon="6.55747">
        <ele>60.14</ele>
        <time>2025-03-15T13:22:59.820Z</time>
      </trkpt>
      <trkpt lat="43.32648" lon="6.55726">
        <ele>59.47</ele>
        <time>2025-03-15T13:23:06.757Z</time>
      </trkpt>
      <trkpt lat="43.32658" lon="6.55706">
        <ele>58.78</ele>
        <time>2025-03-15T13:23:13.649Z</time>
      </trkpt>
      <trkpt lat="43.3266" lon="6.55684">
        <ele>58.07</ele>
        <time>2025-03-15T13:23:19.893Z</time>
      </trkpt>
      <trkpt lat="43.3266" lon="6.55684">
        <ele>57.47</ele>
        <time>2025-03-15T13:23:19.895Z</time>
      </trkpt>
      <trkpt lat="43.3266" lon="6.55678">
        <ele>56.85</ele>
        <time>2025-03-15T13:23:21.495Z</time>
      </trkpt>
      <trkpt lat="43.3266" lon="6.55665">
        <ele>56.23</ele>
        <time>2025-03-15T13:23:25.090Z</time>
      </trkpt>
      <trkpt lat="43.3266" lon="6.55665">
        <ele>55.68</ele>
        <time>2025-03-15T13:23:25.093Z</time>
      </trkpt>
      <trkpt lat="43.32667" lon="6.5567">
        <ele>55.15</ele>
        <time>2025-03-15T13:23:28.039Z</time>
      </trkpt>
      <trkpt lat="43.32673" lon="6.55675">
        <ele>54.66</ele>
        <time>2025-03-15T13:23:30.661Z</time>
      </trkpt>
      <trkpt lat="43.3268" lon="6.55688">
        <ele>54.21</ele>
        <time>2025-03-15T13:23:35.321Z</time>
      </trkpt>
      <trkpt lat="43.32689" lon="6.55692">
        <ele>53.77</ele>
        <time>2025-03-15T13:23:39.142Z</time>
      </trkpt>
      <trkpt lat="43.32703" lon="6.55696">
        <ele>53.33</ele>
        <time>2025-03-15T13:23:44.729Z</time>
      </trkpt>
      <trkpt lat="43.32714" lon="6.55711">
        <ele>52.97</ele>
        <time>2025-03-15T13:23:51.229Z</time>
      </trkpt>
      <trkpt lat="43.32738" lon="6.5574">
        <ele>52.6</ele>
        <time>2025-03-15T13:24:04.537Z</time>
      </trkpt>
      <trkpt lat="43.32742" lon="6.55744">
        <ele>52.29</ele>
        <time>2025-03-15T13:24:06.470Z</time>
      </trkpt>
      <trkpt lat="43.32753" lon="6.55762">
        <ele>51.98</ele>
        <time>2025-03-15T13:24:13.402Z</time>
      </trkpt>
      <trkpt lat="43.32765" lon="6.5576">
        <ele>51.71</ele>
        <time>2025-03-15T13:24:18.286Z</time>
      </trkpt>
      <trkpt lat="43.32775" lon="6.5576">
        <ele>51.51</ele>
        <time>2025-03-15T13:24:22.566Z</time>
      </trkpt>
      <trkpt lat="43.32785" lon="6.55764">
        <ele>51.34</ele>
        <time>2025-03-15T13:24:26.897Z</time>
      </trkpt>
      <trkpt lat="43.32793" lon="6.55768">
        <ele>51.22</ele>
        <time>2025-03-15T13:24:30.554Z</time>
      </trkpt>
      <trkpt lat="43.32802" lon="6.55769">
        <ele>51.17</ele>
        <time>2025-03-15T13:24:34.276Z</time>
      </trkpt>
      <trkpt lat="43.32805" lon="6.55775">
        <ele>51.21</ele>
        <time>2025-03-15T13:24:36.491Z</time>
      </trkpt>
      <trkpt lat="43.32818" lon="6.55778">
        <ele>51.31</ele>
        <time>2025-03-15T13:24:42.538Z</time>
      </trkpt>
      <trkpt lat="43.32828" lon="6.55772">
        <ele>51.49</ele>
        <time>2025-03-15T13:24:47.669Z</time>
      </trkpt>
      <trkpt lat="43.32836" lon="6.55777">
        <ele>51.72</ele>
        <time>2025-03-15T13:24:51.529Z</time>
      </trkpt>
      <trkpt lat="43.32847" lon="6.55777">
        <ele>52.02</ele>
        <time>2025-03-15T13:24:56.757Z</time>
      </trkpt>
      <trkpt lat="43.32857" lon="6.55775">
        <ele>52.37</ele>
        <time>2025-03-15T13:25:02.046Z</time>
      </trkpt>
      <trkpt lat="43.32863" lon="6.55771">
        <ele>52.73</ele>
        <time>2025-03-15T13:25:05.136Z</time>
      </trkpt>
      <trkpt lat="43.32862" lon="6.55748">
        <ele>53.16</ele>
        <time>2025-03-15T13:25:13.199Z</time>
      </trkpt>
      <trkpt lat="43.32864" lon="6.55748">
        <ele>53.56</ele>
        <time>2025-03-15T13:25:14.946Z</time>
      </trkpt>
      <trkpt lat="43.32864" lon="6.55729">
        <ele>54.1</ele>
        <time>2025-03-15T13:25:21.729Z</time>
      </trkpt>
      <trkpt lat="43.32873" lon="6.55691">
        <ele>54.28</ele>
        <time>2025-03-15T13:25:34.860Z</time>
      </trkpt>
      <trkpt lat="43.32875" lon="6.55665">
        <ele>54.87</ele>
        <time>2025-03-15T13:25:44.003Z</time>
      </trkpt>
      <trkpt lat="43.32877" lon="6.55639">
        <ele>54.62</ele>
        <time>2025-03-15T13:25:51.923Z</time>
      </trkpt>
      <trkpt lat="43.32877" lon="6.55613">
        <ele>55.65</ele>
        <time>2025-03-15T13:26:01.732Z</time>
      </trkpt>
      <trkpt lat="43.32877" lon="6.55588">
        <ele>55.03</ele>
        <time>2025-03-15T13:26:09.145Z</time>
      </trkpt>
      <trkpt lat="43.32883" lon="6.55558">
        <ele>55.14</ele>
        <time>2025-03-15T13:26:19.286Z</time>
      </trkpt>
      <trkpt lat="43.32886" lon="6.55521">
        <ele>55.41</ele>
        <time>2025-03-15T13:26:31.335Z</time>
      </trkpt>
      <trkpt lat="43.32888" lon="6.55515">
        <ele>55.46</ele>
        <time>2025-03-15T13:26:33.663Z</time>
      </trkpt>
      <trkpt lat="43.32892" lon="6.55516">
        <ele>56.66</ele>
        <time>2025-03-15T13:26:39.006Z</time>
      </trkpt>
      <trkpt lat="43.32905" lon="6.55519">
        <ele>55.42</ele>
        <time>2025-03-15T13:26:44.211Z</time>
      </trkpt>
      <trkpt lat="43.32918" lon="6.55532">
        <ele>55.25</ele>
        <time>2025-03-15T13:26:50.966Z</time>
      </trkpt>
      <trkpt lat="43.32947" lon="6.55535">
        <ele>55.93</ele>
        <time>2025-03-15T13:27:04.809Z</time>
      </trkpt>
      <trkpt lat="43.32976" lon="6.55538">
        <ele>55.44</ele>
        <time>2025-03-15T13:27:17.051Z</time>
      </trkpt>
      <trkpt lat="43.33006" lon="6.55541">
        <ele>54.14</ele>
        <time>2025-03-15T13:27:28.376Z</time>
      </trkpt>
      <trkpt lat="43.33027" lon="6.55523">
        <ele>53.84</ele>
        <time>2025-03-15T13:27:38.869Z</time>
      </trkpt>
      <trkpt lat="43.33036" lon="6.55521">
        <ele>53.35</ele>
        <time>2025-03-15T13:27:42.217Z</time>
      </trkpt>
      <trkpt lat="43.33036" lon="6.55521">
        <ele>52.77</ele>
        <time>2025-03-15T13:27:42.221Z</time>
      </trkpt>
      <trkpt lat="43.33059" lon="6.55507">
        <ele>52.62</ele>
        <time>2025-03-15T13:27:53.350Z</time>
      </trkpt>
      <trkpt lat="43.33083" lon="6.55492">
        <ele>51.8</ele>
        <time>2025-03-15T13:28:03.644Z</time>
      </trkpt>
      <trkpt lat="43.33107" lon="6.55478">
        <ele>50.83</ele>
        <time>2025-03-15T13:28:13.763Z</time>
      </trkpt>
      <trkpt lat="43.3313" lon="6.55463">
        <ele>49.63</ele>
        <time>2025-03-15T13:28:23.699Z</time>
      </trkpt>
      <trkpt lat="43.33155" lon="6.5545">
        <ele>48.88</ele>
        <time>2025-03-15T13:28:34.457Z</time>
      </trkpt>
      <trkpt lat="43.3318" lon="6.55438">
        <ele>47.9</ele>
        <time>2025-03-15T13:28:44.948Z</time>
      </trkpt>
      <trkpt lat="43.33205" lon="6.55425">
        <ele>46.96</ele>
        <time>2025-03-15T13:28:55.509Z</time>
      </trkpt>
      <trkpt lat="43.33227" lon="6.55407">
        <ele>46.14</ele>
        <time>2025-03-15T13:29:05.365Z</time>
      </trkpt>
      <trkpt lat="43.3325" lon="6.55407">
        <ele>45.42</ele>
        <time>2025-03-15T13:29:14.806Z</time>
      </trkpt>
      <trkpt lat="43.33263" lon="6.55388">
        <ele>44.81</ele>
        <time>2025-03-15T13:29:22.395Z</time>
      </trkpt>
      <trkpt lat="43.3328" lon="6.55384">
        <ele>44.31</ele>
        <time>2025-03-15T13:29:29.409Z</time>
      </trkpt>
      <trkpt lat="43.3328" lon="6.55384">
        <ele>43.91</ele>
        <time>2025-03-15T13:29:29.412Z</time>
      </trkpt>
      <trkpt lat="43.33295" lon="6.55369">
        <ele>43.43</ele>
        <time>2025-03-15T13:29:36.945Z</time>
      </trkpt>
      <trkpt lat="43.33313" lon="6.55367">
        <ele>43.37</ele>
        <time>2025-03-15T13:29:44.420Z</time>
      </trkpt>
      <trkpt lat="43.33321" lon="6.55371">
        <ele>43.38</ele>
        <time>2025-03-15T13:29:48.439Z</time>
      </trkpt>
      <trkpt lat="43.33332" lon="6.5539">
        <ele>43.43</ele>
        <time>2025-03-15T13:29:56.260Z</time>
      </trkpt>
      <trkpt lat="43.3334" lon="6.55395">
        <ele>43.66</ele>
        <time>2025-03-15T13:30:00.593Z</time>
      </trkpt>
      <trkpt lat="43.33353" lon="6.55388">
        <ele>44.01</ele>
        <time>2025-03-15T13:30:07.105Z</time>
      </trkpt>
      <trkpt lat="43.33353" lon="6.55388">
        <ele>43.92</ele>
        <time>2025-03-15T13:30:07.108Z</time>
      </trkpt>
      <trkpt lat="43.33353" lon="6.55388">
        <ele>44.01</ele>
        <time>2025-03-15T13:30:07.128Z</time>
      </trkpt>
      <trkpt lat="43.33353" lon="6.55358">
        <ele>44.56</ele>
        <time>2025-03-15T13:30:17.496Z</time>
      </trkpt>
      <trkpt lat="43.33363" lon="6.5534">
        <ele>45.2</ele>
        <time>2025-03-15T13:30:25.643Z</time>
      </trkpt>
      <trkpt lat="43.33373" lon="6.55322">
        <ele>45.7</ele>
        <time>2025-03-15T13:30:33.553Z</time>
      </trkpt>
      <trkpt lat="43.33379" lon="6.55307">
        <ele>46.26</ele>
        <time>2025-03-15T13:30:39.948Z</time>
      </trkpt>
      <trkpt lat="43.33381" lon="6.55279">
        <ele>46.83</ele>
        <time>2025-03-15T13:30:49.715Z</time>
      </trkpt>
      <trkpt lat="43.33388" lon="6.55268">
        <ele>47.39</ele>
        <time>2025-03-15T13:30:55.008Z</time>
      </trkpt>
      <trkpt lat="43.33405" lon="6.55253">
        <ele>48.02</ele>
        <time>2025-03-15T13:31:04.843Z</time>
      </trkpt>
      <trkpt lat="43.33416" lon="6.55253">
        <ele>48.68</ele>
        <time>2025-03-15T13:31:10.572Z</time>
      </trkpt>
      <trkpt lat="43.33422" lon="6.55262">
        <ele>49.38</ele>
        <time>2025-03-15T13:31:15.634Z</time>
      </trkpt>
      <trkpt lat="43.33424" lon="6.55268">
        <ele>48.42</ele>
        <time>2025-03-15T13:31:17.572Z</time>
      </trkpt>
      <trkpt lat="43.33431" lon="6.55297">
        <ele>48.77</ele>
        <time>2025-03-15T13:31:27.907Z</time>
      </trkpt>
      <trkpt lat="43.33439" lon="6.55326">
        <ele>49.11</ele>
        <time>2025-03-15T13:31:38.193Z</time>
      </trkpt>
      <trkpt lat="43.33448" lon="6.55337">
        <ele>49.46</ele>
        <time>2025-03-15T13:31:43.786Z</time>
      </trkpt>
      <trkpt lat="43.33467" lon="6.55343">
        <ele>49.81</ele>
        <time>2025-03-15T13:31:52.992Z</time>
      </trkpt>
      <trkpt lat="43.33475" lon="6.55342">
        <ele>50.2</ele>
        <time>2025-03-15T13:31:57.177Z</time>
      </trkpt>
      <trkpt lat="43.33482" lon="6.55341">
        <ele>50.62</ele>
        <time>2025-03-15T13:32:00.851Z</time>
      </trkpt>
      <trkpt lat="43.3351" lon="6.55325">
        <ele>51.08</ele>
        <time>2025-03-15T13:32:14.749Z</time>
      </trkpt>
      <trkpt lat="43.33538" lon="6.55309">
        <ele>51.68</ele>
        <time>2025-03-15T13:32:28.874Z</time>
      </trkpt>
      <trkpt lat="43.33557" lon="6.55291">
        <ele>52.25</ele>
        <time>2025-03-15T13:32:39.896Z</time>
      </trkpt>
      <trkpt lat="43.33576" lon="6.55273">
        <ele>52.79</ele>
        <time>2025-03-15T13:32:50.874Z</time>
      </trkpt>
      <trkpt lat="43.33596" lon="6.55255">
        <ele>53.43</ele>
        <time>2025-03-15T13:33:02.006Z</time>
      </trkpt>
      <trkpt lat="43.33616" lon="6.55241">
        <ele>54.08</ele>
        <time>2025-03-15T13:33:12.920Z</time>
      </trkpt>
      <trkpt lat="43.33637" lon="6.55227">
        <ele>54.81</ele>
        <time>2025-03-15T13:33:23.971Z</time>
      </trkpt>
      <trkpt lat="43.33661" lon="6.55219">
        <ele>55.63</ele>
        <time>2025-03-15T13:33:36.313Z</time>
      </trkpt>
      <trkpt lat="43.33686" lon="6.5521">
        <ele>56.38</ele>
        <time>2025-03-15T13:33:48.571Z</time>
      </trkpt>
      <trkpt lat="43.33704" lon="6.55203">
        <ele>57.12</ele>
        <time>2025-03-15T13:33:58.000Z</time>
      </trkpt>
      <trkpt lat="43.33722" lon="6.55195">
        <ele>57.85</ele>
        <time>2025-03-15T13:34:07.430Z</time>
      </trkpt>
      <trkpt lat="43.33746" lon="6.55199">
        <ele>58.59</ele>
        <time>2025-03-15T13:34:19.152Z</time>
      </trkpt>
      <trkpt lat="43.33771" lon="6.55204">
        <ele>59.31</ele>
        <time>2025-03-15T13:34:30.869Z</time>
      </trkpt>
      <trkpt lat="43.33775" lon="6.55192">
        <ele>60</ele>
        <time>2025-03-15T13:34:36.160Z</time>
      </trkpt>
      <trkpt lat="43.33783" lon="6.55167">
        <ele>60.69</ele>
        <time>2025-03-15T13:34:45.794Z</time>
      </trkpt>
      <trkpt lat="43.33786" lon="6.55153">
        <ele>61.32</ele>
        <time>2025-03-15T13:34:51.709Z</time>
      </trkpt>
      <trkpt lat="43.33794" lon="6.55111">
        <ele>61.99</ele>
        <time>2025-03-15T13:35:06.427Z</time>
      </trkpt>
      <trkpt lat="43.33796" lon="6.55102">
        <ele>62.53</ele>
        <time>2025-03-15T13:35:10.104Z</time>
      </trkpt>
      <trkpt lat="43.33803" lon="6.5507">
        <ele>63.05</ele>
        <time>2025-03-15T13:35:21.641Z</time>
      </trkpt>
      <trkpt lat="43.33808" lon="6.55055">
        <ele>63.49</ele>
        <time>2025-03-15T13:35:27.577Z</time>
      </trkpt>
      <trkpt lat="43.33816" lon="6.55013">
        <ele>63.96</ele>
        <time>2025-03-15T13:35:42.003Z</time>
      </trkpt>
      <trkpt lat="43.33816" lon="6.55009">
        <ele>64.37</ele>
        <time>2025-03-15T13:35:44.055Z</time>
      </trkpt>
      <trkpt lat="43.3382" lon="6.54992">
        <ele>64.77</ele>
        <time>2025-03-15T13:35:50.381Z</time>
      </trkpt>
      <trkpt lat="43.33825" lon="6.54994">
        <ele>65.14</ele>
        <time>2025-03-15T13:35:53.396Z</time>
      </trkpt>
      <trkpt lat="43.33826" lon="6.54981">
        <ele>65.56</ele>
        <time>2025-03-15T13:35:58.245Z</time>
      </trkpt>
      <trkpt lat="43.33823" lon="6.5498">
        <ele>65.93</ele>
        <time>2025-03-15T13:36:00.302Z</time>
      </trkpt>
      <trkpt lat="43.33823" lon="6.54962">
        <ele>66.38</ele>
        <time>2025-03-15T13:36:06.698Z</time>
      </trkpt>
      <trkpt lat="43.33825" lon="6.54961">
        <ele>66.82</ele>
        <time>2025-03-15T13:36:08.626Z</time>
      </trkpt>
      <trkpt lat="43.33826" lon="6.5496">
        <ele>67.31</ele>
        <time>2025-03-15T13:36:11.049Z</time>
      </trkpt>
      <trkpt lat="43.33829" lon="6.54951">
        <ele>67.87</ele>
        <time>2025-03-15T13:36:15.111Z</time>
      </trkpt>
      <trkpt lat="43.33828" lon="6.54941">
        <ele>68.5</ele>
        <time>2025-03-15T13:36:19.366Z</time>
      </trkpt>
      <trkpt lat="43.33838" lon="6.54925">
        <ele>69.26</ele>
        <time>2025-03-15T13:36:27.239Z</time>
      </trkpt>
      <trkpt lat="43.33843" lon="6.54903">
        <ele>69.99</ele>
        <time>2025-03-15T13:36:35.678Z</time>
      </trkpt>
      <trkpt lat="43.33852" lon="6.54862">
        <ele>70.95</ele>
        <time>2025-03-15T13:36:50.835Z</time>
      </trkpt>
      <trkpt lat="43.33861" lon="6.5482">
        <ele>71.78</ele>
        <time>2025-03-15T13:37:05.796Z</time>
      </trkpt>
      <trkpt lat="43.33862" lon="6.54814">
        <ele>72.36</ele>
        <time>2025-03-15T13:37:08.889Z</time>
      </trkpt>
      <trkpt lat="43.33867" lon="6.548">
        <ele>72.93</ele>
        <time>2025-03-15T13:37:14.728Z</time>
      </trkpt>
      <trkpt lat="43.33885" lon="6.54775">
        <ele>73.43</ele>
        <time>2025-03-15T13:37:26.651Z</time>
      </trkpt>
      <trkpt lat="43.33895" lon="6.54755">
        <ele>73.75</ele>
        <time>2025-03-15T13:37:34.842Z</time>
      </trkpt>
      <trkpt lat="43.33883" lon="6.54744">
        <ele>73.92</ele>
        <time>2025-03-15T13:37:41.405Z</time>
      </trkpt>
      <trkpt lat="43.33879" lon="6.54742">
        <ele>74.04</ele>
        <time>2025-03-15T13:37:43.443Z</time>
      </trkpt>
      <trkpt lat="43.33849" lon="6.54727">
        <ele>74.02</ele>
        <time>2025-03-15T13:37:57.225Z</time>
      </trkpt>
      <trkpt lat="43.33835" lon="6.5472">
        <ele>74.05</ele>
        <time>2025-03-15T13:38:03.990Z</time>
      </trkpt>
      <trkpt lat="43.33805" lon="6.54705">
        <ele>74.1</ele>
        <time>2025-03-15T13:38:17.869Z</time>
      </trkpt>
      <trkpt lat="43.33791" lon="6.54698">
        <ele>74.18</ele>
        <time>2025-03-15T13:38:24.703Z</time>
      </trkpt>
      <trkpt lat="43.33784" lon="6.54695">
        <ele>74.21</ele>
        <time>2025-03-15T13:38:27.959Z</time>
      </trkpt>
      <trkpt lat="43.3379" lon="6.54677">
        <ele>74.16</ele>
        <time>2025-03-15T13:38:34.207Z</time>
      </trkpt>
      <trkpt lat="43.338" lon="6.54661">
        <ele>74.23</ele>
        <time>2025-03-15T13:38:41.032Z</time>
      </trkpt>
      <trkpt lat="43.33817" lon="6.54645">
        <ele>74.37</ele>
        <time>2025-03-15T13:38:50.259Z</time>
      </trkpt>
      <trkpt lat="43.33819" lon="6.54638">
        <ele>74.51</ele>
        <time>2025-03-15T13:38:52.859Z</time>
      </trkpt>
      <trkpt lat="43.3382" lon="6.54618">
        <ele>74.71</ele>
        <time>2025-03-15T13:38:59.531Z</time>
      </trkpt>
      <trkpt lat="43.33822" lon="6.54604">
        <ele>74.89</ele>
        <time>2025-03-15T13:39:04.334Z</time>
      </trkpt>
      <trkpt lat="43.33823" lon="6.54603">
        <ele>74.95</ele>
        <time>2025-03-15T13:39:04.967Z</time>
      </trkpt>
    </trkseg>
  </trk>
</gpx>